Lemmon, South Dakota
Current Conditions -  °F | °C
As of 2:53 AM on Sunday 23 Nov 2014 (Local Time) from KHEI Reporting Station
Broken Clouds Broken Clouds  
Wind Chill: 23°   Ceiling: 3000
Heat Index: 34°   Visibility: 10mi
Dew Point: 29°   Wind: 17mph
Humidity: 82%   Direction: 280°W
Pressure: 29.5"   Gusts: NA
Location:  45.94°N, 102.16°W
Report Text: KHEI 230953Z AUTO 28015KT 10SM BKN030 01/M02 A2950 RMK AO2 PK WND 28026/0935 SLP006 T00111017
Loading
Personal Weather Stations






























Interactive Weather Map New forecast layout! Learn more

10-Day Weather Forecast

Advertisements
Track Severe Weather on mobile